sensor_id;sensor_type;location;lat;lon;timestamp;P1;durP1;ratioP1;P2;durP2;ratioP2
11082;SDS011;5595;50.186;8.468;2022-08-21T00:00:14;9.63;;;5.72;;
11082;SDS011;5595;50.186;8.468;2022-08-21T00:02:44;9.05;;;6.65;;
11082;SDS011;5595;50.186;8.468;2022-08-21T00:05:12;9.02;;;5.40;;
11082;SDS011;5595;50.186;8.468;2022-08-21T00:07:39;7.28;;;5.38;;
11082;SDS011;5595;50.186;8.468;2022-08-21T00:10:06;10.93;;;5.93;;
11082;SDS011;5595;50.186;8.468;2022-08-21T00:12:34;9.23;;;6.05;;
11082;SDS011;5595;50.186;8.468;2022-08-21T00:15:01;8.52;;;5.90;;
11082;SDS011;5595;50.186;8.468;2022-08-21T00:17:30;10.57;;;5.85;;
11082;SDS011;5595;50.186;8.468;2022-08-21T00:19:57;9.98;;;5.55;;
11082;SDS011;5595;50.186;8.468;2022-08-21T00:22:26;7.93;;;5.78;;
11082;SDS011;5595;50.186;8.468;2022-08-21T00:24:53;8.02;;;5.40;;
11082;SDS011;5595;50.186;8.468;2022-08-21T00:27:20;9.25;;;5.70;;
11082;SDS011;5595;50.186;8.468;2022-08-21T00:29:47;8.10;;;5.78;;
11082;SDS011;5595;50.186;8.468;2022-08-21T00:32:18;6.40;;;5.28;;
11082;SDS011;5595;50.186;8.468;2022-08-21T00:34:47;8.40;;;5.63;;
11082;SDS011;5595;50.186;8.468;2022-08-21T00:37:14;7.75;;;5.43;;
11082;SDS011;5595;50.186;8.468;2022-08-21T00:39:41;7.90;;;6.38;;
11082;SDS011;5595;50.186;8.468;2022-08-21T00:42:08;10.07;;;6.30;;
11082;SDS011;5595;50.186;8.468;2022-08-21T00:44:39;8.93;;;6.00;;
11082;SDS011;5595;50.186;8.468;2022-08-21T00:47:07;10.27;;;6.15;;
11082;SDS011;5595;50.186;8.468;2022-08-21T00:49:34;7.10;;;5.90;;
11082;SDS011;5595;50.186;8.468;2022-08-21T00:52:03;6.82;;;5.82;;
11082;SDS011;5595;50.186;8.468;2022-08-21T00:54:35;7.88;;;5.82;;
11082;SDS011;5595;50.186;8.468;2022-08-21T00:57:07;7.57;;;5.53;;
11082;SDS011;5595;50.186;8.468;2022-08-21T00:59:39;7.80;;;5.95;;
11082;SDS011;5595;50.186;8.468;2022-08-21T01:02:09;6.45;;;5.72;;
11082;SDS011;5595;50.186;8.468;2022-08-21T01:04:37;8.75;;;6.18;;
11082;SDS011;5595;50.186;8.468;2022-08-21T01:07:05;8.23;;;6.25;;
11082;SDS011;5595;50.186;8.468;2022-08-21T01:09:33;7.95;;;6.07;;
11082;SDS011;5595;50.186;8.468;2022-08-21T01:12:00;11.98;;;6.35;;
11082;SDS011;5595;50.186;8.468;2022-08-21T01:14:28;9.25;;;5.57;;
11082;SDS011;5595;50.186;8.468;2022-08-21T01:16:55;10.38;;;6.78;;
11082;SDS011;5595;50.186;8.468;2022-08-21T01:19:28;7.70;;;6.90;;
11082;SDS011;5595;50.186;8.468;2022-08-21T01:21:57;9.18;;;6.15;;
11082;SDS011;5595;50.186;8.468;2022-08-21T01:24:24;9.20;;;6.32;;
11082;SDS011;5595;50.186;8.468;2022-08-21T01:26:52;10.35;;;6.25;;
11082;SDS011;5595;50.186;8.468;2022-08-21T01:29:22;7.90;;;6.43;;
11082;SDS011;5595;50.186;8.468;2022-08-21T01:31:55;10.80;;;6.40;;
11082;SDS011;5595;50.186;8.468;2022-08-21T01:34:23;10.23;;;6.68;;
11082;SDS011;5595;50.186;8.468;2022-08-21T01:36:50;8.02;;;6.28;;
11082;SDS011;5595;50.186;8.468;2022-08-21T01:39:19;7.80;;;6.40;;
11082;SDS011;5595;50.186;8.468;2022-08-21T01:41:45;8.68;;;6.38;;
11082;SDS011;5595;50.186;8.468;2022-08-21T01:44:12;6.97;;;6.28;;
11082;SDS011;5595;50.186;8.468;2022-08-21T01:46:39;6.82;;;6.15;;
11082;SDS011;5595;50.186;8.468;2022-08-21T01:49:06;7.78;;;6.05;;
11082;SDS011;5595;50.186;8.468;2022-08-21T01:51:33;7.70;;;6.55;;
11082;SDS011;5595;50.186;8.468;2022-08-21T01:54:00;12.93;;;6.78;;
11082;SDS011;5595;50.186;8.468;2022-08-21T01:56:29;7.38;;;6.32;;
11082;SDS011;5595;50.186;8.468;2022-08-21T01:59:02;10.55;;;6.82;;
11082;SDS011;5595;50.186;8.468;2022-08-21T02:01:29;8.40;;;6.50;;
11082;SDS011;5595;50.186;8.468;2022-08-21T02:03:56;7.68;;;6.60;;
11082;SDS011;5595;50.186;8.468;2022-08-21T02:06:24;8.88;;;5.57;;
11082;SDS011;5595;50.186;8.468;2022-08-21T02:08:52;9.43;;;6.68;;
11082;SDS011;5595;50.186;8.468;2022-08-21T02:11:19;7.82;;;6.55;;
11082;SDS011;5595;50.186;8.468;2022-08-21T02:13:47;8.27;;;6.25;;
11082;SDS011;5595;50.186;8.468;2022-08-21T02:16:14;7.72;;;6.78;;
11082;SDS011;5595;50.186;8.468;2022-08-21T02:18:41;7.55;;;6.50;;
11082;SDS011;5595;50.186;8.468;2022-08-21T02:21:08;8.50;;;6.90;;
11082;SDS011;5595;50.186;8.468;2022-08-21T02:23:35;9.82;;;6.97;;
11082;SDS011;5595;50.186;8.468;2022-08-21T02:26:04;7.28;;;6.28;;
11082;SDS011;5595;50.186;8.468;2022-08-21T02:28:33;7.97;;;6.93;;
11082;SDS011;5595;50.186;8.468;2022-08-21T02:31:02;12.60;;;6.80;;
11082;SDS011;5595;50.186;8.468;2022-08-21T02:33:30;7.30;;;6.60;;
11082;SDS011;5595;50.186;8.468;2022-08-21T02:35:58;7.70;;;6.90;;
11082;SDS011;5595;50.186;8.468;2022-08-21T02:38:27;8.27;;;7.03;;
11082;SDS011;5595;50.186;8.468;2022-08-21T02:40:55;9.20;;;6.78;;
11082;SDS011;5595;50.186;8.468;2022-08-21T02:43:23;11.18;;;7.72;;
11082;SDS011;5595;50.186;8.468;2022-08-21T02:45:52;7.38;;;6.38;;
11082;SDS011;5595;50.186;8.468;2022-08-21T02:48:22;9.40;;;7.53;;
11082;SDS011;5595;50.186;8.468;2022-08-21T02:50:54;8.48;;;7.10;;
11082;SDS011;5595;50.186;8.468;2022-08-21T02:53:22;7.70;;;6.90;;
11082;SDS011;5595;50.186;8.468;2022-08-21T02:55:53;12.70;;;7.25;;
11082;SDS011;5595;50.186;8.468;2022-08-21T02:58:21;10.32;;;7.05;;
11082;SDS011;5595;50.186;8.468;2022-08-21T03:00:50;8.15;;;6.97;;
11082;SDS011;5595;50.186;8.468;2022-08-21T03:03:17;9.25;;;7.25;;
11082;SDS011;5595;50.186;8.468;2022-08-21T03:05:47;11.00;;;7.53;;
11082;SDS011;5595;50.186;8.468;2022-08-21T03:08:14;7.78;;;7.07;;
11082;SDS011;5595;50.186;8.468;2022-08-21T03:10:42;8.88;;;7.15;;
11082;SDS011;5595;50.186;8.468;2022-08-21T03:13:12;11.90;;;7.47;;
11082;SDS011;5595;50.186;8.468;2022-08-21T03:15:40;7.93;;;6.93;;
11082;SDS011;5595;50.186;8.468;2022-08-21T03:18:08;9.00;;;7.47;;
11082;SDS011;5595;50.186;8.468;2022-08-21T03:20:36;9.30;;;7.45;;
11082;SDS011;5595;50.186;8.468;2022-08-21T03:23:05;7.78;;;7.03;;
11082;SDS011;5595;50.186;8.468;2022-08-21T03:25:33;8.07;;;7.30;;
11082;SDS011;5595;50.186;8.468;2022-08-21T03:28:01;9.23;;;7.35;;
11082;SDS011;5595;50.186;8.468;2022-08-21T03:30:29;11.98;;;7.45;;
11082;SDS011;5595;50.186;8.468;2022-08-21T03:32:57;9.85;;;6.93;;
11082;SDS011;5595;50.186;8.468;2022-08-21T03:35:24;11.80;;;7.85;;
11082;SDS011;5595;50.186;8.468;2022-08-21T03:37:52;8.50;;;7.60;;
11082;SDS011;5595;50.186;8.468;2022-08-21T03:40:21;10.02;;;7.50;;
11082;SDS011;5595;50.186;8.468;2022-08-21T03:42:50;10.20;;;7.32;;
11082;SDS011;5595;50.186;8.468;2022-08-21T03:45:17;8.15;;;7.40;;
11082;SDS011;5595;50.186;8.468;2022-08-21T03:47:52;9.13;;;7.40;;
11082;SDS011;5595;50.186;8.468;2022-08-21T03:50:20;11.30;;;7.82;;
11082;SDS011;5595;50.186;8.468;2022-08-21T03:52:48;12.57;;;7.78;;
11082;SDS011;5595;50.186;8.468;2022-08-21T03:55:15;12.52;;;7.72;;
11082;SDS011;5595;50.186;8.468;2022-08-21T03:57:44;13.10;;;8.80;;
11082;SDS011;5595;50.186;8.468;2022-08-21T04:00:11;8.27;;;7.40;;
11082;SDS011;5595;50.186;8.468;2022-08-21T04:02:39;12.00;;;7.90;;
11082;SDS011;5595;50.186;8.468;2022-08-21T04:05:08;8.35;;;7.38;;
11082;SDS011;5595;50.186;8.468;2022-08-21T04:07:35;9.15;;;8.07;;
11082;SDS011;5595;50.186;8.468;2022-08-21T04:10:06;9.90;;;7.93;;
11082;SDS011;5595;50.186;8.468;2022-08-21T04:12:34;11.18;;;7.93;;
11082;SDS011;5595;50.186;8.468;2022-08-21T04:15:02;10.18;;;8.05;;
11082;SDS011;5595;50.186;8.468;2022-08-21T04:17:30;12.82;;;8.25;;
11082;SDS011;5595;50.186;8.468;2022-08-21T04:19:58;10.68;;;8.57;;
11082;SDS011;5595;50.186;8.468;2022-08-21T04:22:25;11.75;;;8.88;;
11082;SDS011;5595;50.186;8.468;2022-08-21T04:24:52;10.18;;;8.00;;
11082;SDS011;5595;50.186;8.468;2022-08-21T04:27:18;9.20;;;7.88;;
11082;SDS011;5595;50.186;8.468;2022-08-21T04:29:45;11.43;;;8.27;;
11082;SDS011;5595;50.186;8.468;2022-08-21T04:32:14;12.00;;;8.80;;
11082;SDS011;5595;50.186;8.468;2022-08-21T04:34:48;11.13;;;8.57;;
11082;SDS011;5595;50.186;8.468;2022-08-21T04:37:15;14.18;;;8.57;;
11082;SDS011;5595;50.186;8.468;2022-08-21T04:39:42;11.68;;;8.85;;
11082;SDS011;5595;50.186;8.468;2022-08-21T04:42:09;11.75;;;9.10;;
11082;SDS011;5595;50.186;8.468;2022-08-21T04:44:36;12.95;;;8.15;;
11082;SDS011;5595;50.186;8.468;2022-08-21T04:47:02;12.02;;;8.88;;
11082;SDS011;5595;50.186;8.468;2022-08-21T04:49:32;12.30;;;8.93;;
11082;SDS011;5595;50.186;8.468;2022-08-21T04:51:59;12.32;;;8.55;;
11082;SDS011;5595;50.186;8.468;2022-08-21T04:54:27;10.13;;;8.15;;
11082;SDS011;5595;50.186;8.468;2022-08-21T04:56:55;13.52;;;7.82;;
11082;SDS011;5595;50.186;8.468;2022-08-21T04:59:30;13.18;;;7.75;;
11082;SDS011;5595;50.186;8.468;2022-08-21T05:02:01;10.30;;;7.60;;
11082;SDS011;5595;50.186;8.468;2022-08-21T05:04:29;11.13;;;7.68;;
11082;SDS011;5595;50.186;8.468;2022-08-21T05:06:59;14.35;;;8.32;;
11082;SDS011;5595;50.186;8.468;2022-08-21T05:09:31;12.00;;;7.55;;
11082;SDS011;5595;50.186;8.468;2022-08-21T05:12:00;9.23;;;6.50;;
11082;SDS011;5595;50.186;8.468;2022-08-21T05:14:27;10.23;;;7.20;;
11082;SDS011;5595;50.186;8.468;2022-08-21T05:16:54;10.13;;;7.07;;
11082;SDS011;5595;50.186;8.468;2022-08-21T05:19:21;9.45;;;7.10;;
11082;SDS011;5595;50.186;8.468;2022-08-21T05:21:49;11.15;;;7.05;;
11082;SDS011;5595;50.186;8.468;2022-08-21T05:24:16;10.90;;;7.28;;
11082;SDS011;5595;50.186;8.468;2022-08-21T05:26:43;12.57;;;7.03;;
11082;SDS011;5595;50.186;8.468;2022-08-21T05:29:11;9.80;;;6.80;;
11082;SDS011;5595;50.186;8.468;2022-08-21T05:31:38;10.50;;;6.93;;
11082;SDS011;5595;50.186;8.468;2022-08-21T05:34:05;10.55;;;6.20;;
11082;SDS011;5595;50.186;8.468;2022-08-21T05:36:33;11.45;;;6.55;;
11082;SDS011;5595;50.186;8.468;2022-08-21T05:39:02;10.68;;;6.50;;
11082;SDS011;5595;50.186;8.468;2022-08-21T05:41:29;11.82;;;6.32;;
11082;SDS011;5595;50.186;8.468;2022-08-21T05:43:56;11.40;;;6.43;;
11082;SDS011;5595;50.186;8.468;2022-08-21T05:46:23;10.90;;;6.75;;
11082;SDS011;5595;50.186;8.468;2022-08-21T05:48:50;9.93;;;5.65;;
11082;SDS011;5595;50.186;8.468;2022-08-21T05:51:17;8.45;;;6.20;;
11082;SDS011;5595;50.186;8.468;2022-08-21T05:53:44;8.55;;;5.88;;
11082;SDS011;5595;50.186;8.468;2022-08-21T05:56:13;12.00;;;6.40;;
11082;SDS011;5595;50.186;8.468;2022-08-21T05:58:43;8.75;;;5.43;;
11082;SDS011;5595;50.186;8.468;2022-08-21T06:01:10;9.20;;;5.60;;
11082;SDS011;5595;50.186;8.468;2022-08-21T06:03:38;10.15;;;6.47;;
11082;SDS011;5595;50.186;8.468;2022-08-21T06:06:06;9.27;;;6.05;;
11082;SDS011;5595;50.186;8.468;2022-08-21T06:08:34;13.40;;;6.22;;
11082;SDS011;5595;50.186;8.468;2022-08-21T06:11:02;13.18;;;6.15;;
11082;SDS011;5595;50.186;8.468;2022-08-21T06:13:32;11.82;;;5.63;;
11082;SDS011;5595;50.186;8.468;2022-08-21T06:16:00;9.50;;;5.00;;
11082;SDS011;5595;50.186;8.468;2022-08-21T06:18:30;6.75;;;4.90;;
11082;SDS011;5595;50.186;8.468;2022-08-21T06:20:57;10.68;;;4.90;;
11082;SDS011;5595;50.186;8.468;2022-08-21T06:23:26;7.72;;;4.90;;
11082;SDS011;5595;50.186;8.468;2022-08-21T06:25:53;9.43;;;5.43;;
11082;SDS011;5595;50.186;8.468;2022-08-21T06:28:20;9.30;;;4.55;;
11082;SDS011;5595;50.186;8.468;2022-08-21T06:30:48;9.57;;;4.80;;
11082;SDS011;5595;50.186;8.468;2022-08-21T06:33:15;9.63;;;5.18;;
11082;SDS011;5595;50.186;8.468;2022-08-21T06:35:42;10.15;;;5.47;;
11082;SDS011;5595;50.186;8.468;2022-08-21T06:38:09;10.30;;;4.93;;
11082;SDS011;5595;50.186;8.468;2022-08-21T06:40:36;6.57;;;4.95;;
11082;SDS011;5595;50.186;8.468;2022-08-21T06:43:07;6.63;;;5.35;;
11082;SDS011;5595;50.186;8.468;2022-08-21T06:45:35;9.45;;;5.95;;
11082;SDS011;5595;50.186;8.468;2022-08-21T06:48:04;7.50;;;5.43;;
11082;SDS011;5595;50.186;8.468;2022-08-21T06:50:32;9.50;;;5.13;;
11082;SDS011;5595;50.186;8.468;2022-08-21T06:53:00;11.18;;;6.00;;
11082;SDS011;5595;50.186;8.468;2022-08-21T06:55:29;14.13;;;6.30;;
11082;SDS011;5595;50.186;8.468;2022-08-21T06:57:56;7.20;;;4.90;;
11082;SDS011;5595;50.186;8.468;2022-08-21T07:00:23;11.98;;;5.20;;
11082;SDS011;5595;50.186;8.468;2022-08-21T07:02:50;12.82;;;6.10;;
11082;SDS011;5595;50.186;8.468;2022-08-21T07:05:18;6.35;;;3.90;;
11082;SDS011;5595;50.186;8.468;2022-08-21T07:07:45;5.70;;;4.50;;
11082;SDS011;5595;50.186;8.468;2022-08-21T07:10:13;5.78;;;4.68;;
11082;SDS011;5595;50.186;8.468;2022-08-21T07:12:40;15.48;;;6.18;;
11082;SDS011;5595;50.186;8.468;2022-08-21T07:15:08;7.05;;;5.25;;
11082;SDS011;5595;50.186;8.468;2022-08-21T07:17:36;7.40;;;5.40;;
11082;SDS011;5595;50.186;8.468;2022-08-21T07:20:03;9.55;;;5.88;;
11082;SDS011;5595;50.186;8.468;2022-08-21T07:22:32;6.82;;;5.57;;
11082;SDS011;5595;50.186;8.468;2022-08-21T07:25:01;8.68;;;4.57;;
11082;SDS011;5595;50.186;8.468;2022-08-21T07:27:29;6.25;;;4.43;;
11082;SDS011;5595;50.186;8.468;2022-08-21T07:29:56;8.43;;;4.95;;
11082;SDS011;5595;50.186;8.468;2022-08-21T07:32:23;5.85;;;4.32;;
11082;SDS011;5595;50.186;8.468;2022-08-21T07:34:50;6.28;;;4.53;;
11082;SDS011;5595;50.186;8.468;2022-08-21T07:37:17;6.85;;;4.00;;
11082;SDS011;5595;50.186;8.468;2022-08-21T07:39:45;5.75;;;4.20;;
11082;SDS011;5595;50.186;8.468;2022-08-21T07:42:13;6.47;;;4.75;;
11082;SDS011;5595;50.186;8.468;2022-08-21T07:44:40;7.05;;;3.85;;
11082;SDS011;5595;50.186;8.468;2022-08-21T07:47:08;7.47;;;3.95;;
11082;SDS011;5595;50.186;8.468;2022-08-21T07:49:35;9.00;;;4.15;;
11082;SDS011;5595;50.186;8.468;2022-08-21T07:52:02;6.30;;;4.57;;
11082;SDS011;5595;50.186;8.468;2022-08-21T07:54:29;7.30;;;4.30;;
11082;SDS011;5595;50.186;8.468;2022-08-21T07:56:58;8.10;;;3.50;;
11082;SDS011;5595;50.186;8.468;2022-08-21T07:59:27;6.28;;;3.47;;
11082;SDS011;5595;50.186;8.468;2022-08-21T08:01:54;4.88;;;3.53;;
11082;SDS011;5595;50.186;8.468;2022-08-21T08:04:21;5.38;;;3.50;;
11082;SDS011;5595;50.186;8.468;2022-08-21T08:06:49;9.88;;;3.60;;
11082;SDS011;5595;50.186;8.468;2022-08-21T08:09:16;8.45;;;3.72;;
11082;SDS011;5595;50.186;8.468;2022-08-21T08:11:43;6.85;;;3.38;;
11082;SDS011;5595;50.186;8.468;2022-08-21T08:14:11;9.05;;;3.45;;
11082;SDS011;5595;50.186;8.468;2022-08-21T08:16:38;9.30;;;3.35;;
11082;SDS011;5595;50.186;8.468;2022-08-21T08:19:05;7.45;;;2.90;;
11082;SDS011;5595;50.186;8.468;2022-08-21T08:21:32;10.25;;;2.72;;
11082;SDS011;5595;50.186;8.468;2022-08-21T08:24:03;9.30;;;2.53;;
11082;SDS011;5595;50.186;8.468;2022-08-21T08:26:32;8.50;;;2.63;;
11082;SDS011;5595;50.186;8.468;2022-08-21T08:28:59;5.75;;;2.60;;
11082;SDS011;5595;50.186;8.468;2022-08-21T08:31:28;6.75;;;2.60;;
11082;SDS011;5595;50.186;8.468;2022-08-21T08:33:55;7.80;;;3.03;;
11082;SDS011;5595;50.186;8.468;2022-08-21T08:36:30;8.63;;;3.17;;
11082;SDS011;5595;50.186;8.468;2022-08-21T08:38:58;6.72;;;2.65;;
11082;SDS011;5595;50.186;8.468;2022-08-21T08:41:26;9.10;;;3.17;;
11082;SDS011;5595;50.186;8.468;2022-08-21T08:43:56;4.65;;;2.67;;
11082;SDS011;5595;50.186;8.468;2022-08-21T08:46:30;6.65;;;2.78;;
11082;SDS011;5595;50.186;8.468;2022-08-21T08:49:04;6.28;;;2.70;;
11082;SDS011;5595;50.186;8.468;2022-08-21T08:51:37;4.05;;;2.42;;
11082;SDS011;5595;50.186;8.468;2022-08-21T08:54:09;6.90;;;2.40;;
11082;SDS011;5595;50.186;8.468;2022-08-21T08:56:39;8.73;;;2.40;;
11082;SDS011;5595;50.186;8.468;2022-08-21T08:59:07;5.15;;;1.80;;
11082;SDS011;5595;50.186;8.468;2022-08-21T09:01:41;9.50;;;2.55;;
11082;SDS011;5595;50.186;8.468;2022-08-21T09:04:09;4.63;;;1.98;;
11082;SDS011;5595;50.186;8.468;2022-08-21T09:06:41;7.03;;;2.03;;
11082;SDS011;5595;50.186;8.468;2022-08-21T09:09:21;5.43;;;2.03;;
11082;SDS011;5595;50.186;8.468;2022-08-21T09:11:56;6.65;;;2.17;;
11082;SDS011;5595;50.186;8.468;2022-08-21T09:14:31;7.07;;;2.63;;
11082;SDS011;5595;50.186;8.468;2022-08-21T09:17:13;5.30;;;2.35;;
11082;SDS011;5595;50.186;8.468;2022-08-21T09:19:53;8.40;;;2.10;;
11082;SDS011;5595;50.186;8.468;2022-08-21T09:22:30;10.27;;;2.75;;
11082;SDS011;5595;50.186;8.468;2022-08-21T09:25:07;7.32;;;2.53;;
11082;SDS011;5595;50.186;8.468;2022-08-21T09:27:38;4.22;;;2.10;;
11082;SDS011;5595;50.186;8.468;2022-08-21T09:30:06;6.38;;;2.40;;
11082;SDS011;5595;50.186;8.468;2022-08-21T09:32:38;6.05;;;2.47;;
11082;SDS011;5595;50.186;8.468;2022-08-21T09:35:07;6.03;;;2.65;;
11082;SDS011;5595;50.186;8.468;2022-08-21T09:37:46;7.88;;;2.00;;
11082;SDS011;5595;50.186;8.468;2022-08-21T09:40:28;6.28;;;2.25;;
11082;SDS011;5595;50.186;8.468;2022-08-21T09:43:00;5.32;;;2.10;;
11082;SDS011;5595;50.186;8.468;2022-08-21T09:45:29;8.45;;;2.45;;
11082;SDS011;5595;50.186;8.468;2022-08-21T09:48:08;5.45;;;2.50;;
11082;SDS011;5595;50.186;8.468;2022-08-21T09:50:37;5.60;;;2.70;;
11082;SDS011;5595;50.186;8.468;2022-08-21T09:53:04;7.82;;;2.70;;
11082;SDS011;5595;50.186;8.468;2022-08-21T09:55:46;7.65;;;2.28;;
11082;SDS011;5595;50.186;8.468;2022-08-21T09:58:33;8.43;;;1.98;;
11082;SDS011;5595;50.186;8.468;2022-08-21T10:01:06;6.07;;;2.63;;
11082;SDS011;5595;50.186;8.468;2022-08-21T10:03:39;6.18;;;2.50;;
11082;SDS011;5595;50.186;8.468;2022-08-21T10:06:08;7.50;;;2.40;;
11082;SDS011;5595;50.186;8.468;2022-08-21T10:08:47;7.10;;;2.58;;
11082;SDS011;5595;50.186;8.468;2022-08-21T10:11:16;8.95;;;2.88;;
11082;SDS011;5595;50.186;8.468;2022-08-21T10:13:47;6.82;;;2.47;;
11082;SDS011;5595;50.186;8.468;2022-08-21T10:16:24;5.38;;;2.10;;
11082;SDS011;5595;50.186;8.468;2022-08-21T10:19:05;6.65;;;2.38;;
11082;SDS011;5595;50.186;8.468;2022-08-21T10:21:42;8.20;;;2.53;;
11082;SDS011;5595;50.186;8.468;2022-08-21T10:24:20;5.82;;;2.42;;
11082;SDS011;5595;50.186;8.468;2022-08-21T10:26:55;8.20;;;2.30;;
11082;SDS011;5595;50.186;8.468;2022-08-21T10:29:34;6.72;;;2.20;;
11082;SDS011;5595;50.186;8.468;2022-08-21T10:32:16;4.57;;;2.13;;
11082;SDS011;5595;50.186;8.468;2022-08-21T10:34:59;6.20;;;2.17;;
11082;SDS011;5595;50.186;8.468;2022-08-21T10:37:36;5.80;;;2.75;;
11082;SDS011;5595;50.186;8.468;2022-08-21T10:40:15;8.10;;;2.72;;
11082;SDS011;5595;50.186;8.468;2022-08-21T10:42:54;4.60;;;2.75;;
11082;SDS011;5595;50.186;8.468;2022-08-21T10:45:37;6.50;;;1.95;;
11082;SDS011;5595;50.186;8.468;2022-08-21T10:48:14;3.92;;;1.90;;
11082;SDS011;5595;50.186;8.468;2022-08-21T10:50:54;9.45;;;2.75;;
11082;SDS011;5595;50.186;8.468;2022-08-21T10:53:32;7.05;;;2.00;;
11082;SDS011;5595;50.186;8.468;2022-08-21T10:56:12;7.25;;;2.40;;
11082;SDS011;5595;50.186;8.468;2022-08-21T10:58:45;4.50;;;2.13;;
11082;SDS011;5595;50.186;8.468;2022-08-21T11:01:17;6.40;;;2.08;;
11082;SDS011;5595;50.186;8.468;2022-08-21T11:03:50;5.75;;;2.55;;
11082;SDS011;5595;50.186;8.468;2022-08-21T11:06:25;6.32;;;2.13;;
11082;SDS011;5595;50.186;8.468;2022-08-21T11:08:58;4.55;;;2.40;;
11082;SDS011;5595;50.186;8.468;2022-08-21T11:11:35;4.75;;;2.45;;
11082;SDS011;5595;50.186;8.468;2022-08-21T11:14:08;7.55;;;2.60;;
11082;SDS011;5595;50.186;8.468;2022-08-21T11:16:43;3.97;;;1.88;;
11082;SDS011;5595;50.186;8.468;2022-08-21T11:19:15;4.47;;;1.92;;
11082;SDS011;5595;50.186;8.468;2022-08-21T11:21:50;5.57;;;2.33;;
11082;SDS011;5595;50.186;8.468;2022-08-21T11:24:24;5.90;;;2.03;;
11082;SDS011;5595;50.186;8.468;2022-08-21T11:26:58;6.78;;;2.28;;
11082;SDS011;5595;50.186;8.468;2022-08-21T11:29:32;6.40;;;2.10;;
11082;SDS011;5595;50.186;8.468;2022-08-21T11:32:13;3.15;;;1.90;;
11082;SDS011;5595;50.186;8.468;2022-08-21T11:34:57;8.15;;;1.90;;
11082;SDS011;5595;50.186;8.468;2022-08-21T11:37:36;5.10;;;1.70;;
11082;SDS011;5595;50.186;8.468;2022-08-21T11:40:17;6.63;;;2.40;;
11082;SDS011;5595;50.186;8.468;2022-08-21T11:43:00;6.07;;;1.83;;
11082;SDS011;5595;50.186;8.468;2022-08-21T11:45:38;4.72;;;2.03;;
11082;SDS011;5595;50.186;8.468;2022-08-21T11:48:11;3.08;;;1.70;;
11082;SDS011;5595;50.186;8.468;2022-08-21T11:50:57;5.13;;;1.70;;
11082;SDS011;5595;50.186;8.468;2022-08-21T11:53:28;6.35;;;2.00;;
11082;SDS011;5595;50.186;8.468;2022-08-21T11:56:02;4.15;;;1.83;;
11082;SDS011;5595;50.186;8.468;2022-08-21T11:58:35;5.03;;;1.80;;
11082;SDS011;5595;50.186;8.468;2022-08-21T12:01:08;4.90;;;1.63;;
11082;SDS011;5595;50.186;8.468;2022-08-21T12:03:39;4.60;;;1.70;;
11082;SDS011;5595;50.186;8.468;2022-08-21T12:06:09;11.43;;;1.92;;
11082;SDS011;5595;50.186;8.468;2022-08-21T12:08:40;4.18;;;1.63;;
11082;SDS011;5595;50.186;8.468;2022-08-21T12:11:10;7.53;;;2.22;;
11082;SDS011;5595;50.186;8.468;2022-08-21T12:13:53;5.97;;;1.60;;
11082;SDS011;5595;50.186;8.468;2022-08-21T12:16:28;2.42;;;1.20;;
11082;SDS011;5595;50.186;8.468;2022-08-21T12:19:04;3.33;;;1.30;;
11082;SDS011;5595;50.186;8.468;2022-08-21T12:21:33;4.82;;;1.50;;
11082;SDS011;5595;50.186;8.468;2022-08-21T12:24:18;3.70;;;1.58;;
11082;SDS011;5595;50.186;8.468;2022-08-21T12:26:57;4.78;;;1.77;;
11082;SDS011;5595;50.186;8.468;2022-08-21T12:29:26;3.75;;;1.50;;
11082;SDS011;5595;50.186;8.468;2022-08-21T12:31:57;4.30;;;1.48;;
11082;SDS011;5595;50.186;8.468;2022-08-21T12:34:29;6.10;;;1.27;;
11082;SDS011;5595;50.186;8.468;2022-08-21T12:37:02;3.80;;;1.88;;
11082;SDS011;5595;50.186;8.468;2022-08-21T12:39:35;5.75;;;1.58;;
11082;SDS011;5595;50.186;8.468;2022-08-21T12:42:06;3.20;;;1.42;;
11082;SDS011;5595;50.186;8.468;2022-08-21T12:44:42;3.75;;;1.40;;
11082;SDS011;5595;50.186;8.468;2022-08-21T12:47:14;3.35;;;1.35;;
11082;SDS011;5595;50.186;8.468;2022-08-21T12:49:52;4.78;;;1.00;;
11082;SDS011;5595;50.186;8.468;2022-08-21T12:52:28;3.22;;;1.42;;
11082;SDS011;5595;50.186;8.468;2022-08-21T12:55:01;3.47;;;1.27;;
11082;SDS011;5595;50.186;8.468;2022-08-21T12:57:32;4.60;;;1.30;;
11082;SDS011;5595;50.186;8.468;2022-08-21T13:00:05;2.70;;;0.98;;
11082;SDS011;5595;50.186;8.468;2022-08-21T13:02:37;6.93;;;1.40;;
11082;SDS011;5595;50.186;8.468;2022-08-21T13:05:13;2.75;;;1.00;;
11082;SDS011;5595;50.186;8.468;2022-08-21T13:07:47;3.90;;;1.20;;
11082;SDS011;5595;50.186;8.468;2022-08-21T13:10:18;4.13;;;1.40;;
11082;SDS011;5595;50.186;8.468;2022-08-21T13:12:48;2.47;;;1.10;;
11082;SDS011;5595;50.186;8.468;2022-08-21T13:15:22;3.58;;;1.10;;
11082;SDS011;5595;50.186;8.468;2022-08-21T13:17:52;2.53;;;1.08;;
11082;SDS011;5595;50.186;8.468;2022-08-21T13:20:20;4.25;;;1.63;;
11082;SDS011;5595;50.186;8.468;2022-08-21T13:22:50;1.17;;;0.90;;
11082;SDS011;5595;50.186;8.468;2022-08-21T13:25:20;5.88;;;1.25;;
11082;SDS011;5595;50.186;8.468;2022-08-21T13:27:57;3.45;;;1.55;;
11082;SDS011;5595;50.186;8.468;2022-08-21T13:30:27;2.35;;;0.93;;
11082;SDS011;5595;50.186;8.468;2022-08-21T13:32:56;3.10;;;1.00;;
11082;SDS011;5595;50.186;8.468;2022-08-21T13:35:26;3.55;;;1.05;;
11082;SDS011;5595;50.186;8.468;2022-08-21T13:37:56;4.45;;;0.93;;
11082;SDS011;5595;50.186;8.468;2022-08-21T13:40:26;2.03;;;0.90;;
11082;SDS011;5595;50.186;8.468;2022-08-21T13:42:57;2.58;;;1.02;;
11082;SDS011;5595;50.186;8.468;2022-08-21T13:45:27;2.42;;;1.00;;
11082;SDS011;5595;50.186;8.468;2022-08-21T13:48:01;3.20;;;1.00;;
11082;SDS011;5595;50.186;8.468;2022-08-21T13:50:29;1.63;;;0.77;;
11082;SDS011;5595;50.186;8.468;2022-08-21T13:52:58;3.70;;;1.02;;
11082;SDS011;5595;50.186;8.468;2022-08-21T13:55:43;4.05;;;0.95;;
11082;SDS011;5595;50.186;8.468;2022-08-21T13:58:10;2.60;;;1.23;;
11082;SDS011;5595;50.186;8.468;2022-08-21T14:00:43;1.27;;;0.73;;
11082;SDS011;5595;50.186;8.468;2022-08-21T14:03:13;2.40;;;1.05;;
11082;SDS011;5595;50.186;8.468;2022-08-21T14:05:56;2.75;;;0.90;;
11082;SDS011;5595;50.186;8.468;2022-08-21T14:08:24;4.53;;;1.05;;
11082;SDS011;5595;50.186;8.468;2022-08-21T14:10:58;3.83;;;1.00;;
11082;SDS011;5595;50.186;8.468;2022-08-21T14:13:33;3.15;;;1.10;;
11082;SDS011;5595;50.186;8.468;2022-08-21T14:16:10;5.53;;;1.13;;
11082;SDS011;5595;50.186;8.468;2022-08-21T14:18:44;3.03;;;1.35;;
11082;SDS011;5595;50.186;8.468;2022-08-21T14:21:12;4.88;;;1.23;;
11082;SDS011;5595;50.186;8.468;2022-08-21T14:23:39;3.67;;;0.88;;
11082;SDS011;5595;50.186;8.468;2022-08-21T14:26:09;2.42;;;1.08;;
11082;SDS011;5595;50.186;8.468;2022-08-21T14:28:43;4.03;;;1.20;;
11082;SDS011;5595;50.186;8.468;2022-08-21T14:31:12;5.57;;;1.10;;
11082;SDS011;5595;50.186;8.468;2022-08-21T14:33:41;2.33;;;1.00;;
11082;SDS011;5595;50.186;8.468;2022-08-21T14:36:08;2.40;;;0.82;;
11082;SDS011;5595;50.186;8.468;2022-08-21T14:38:36;2.33;;;0.75;;
11082;SDS011;5595;50.186;8.468;2022-08-21T14:41:07;3.90;;;0.98;;
11082;SDS011;5595;50.186;8.468;2022-08-21T14:43:41;2.83;;;1.00;;
11082;SDS011;5595;50.186;8.468;2022-08-21T14:46:10;3.65;;;0.70;;
11082;SDS011;5595;50.186;8.468;2022-08-21T14:48:38;8.38;;;1.15;;
11082;SDS011;5595;50.186;8.468;2022-08-21T14:51:05;4.25;;;0.90;;
11082;SDS011;5595;50.186;8.468;2022-08-21T14:53:32;2.13;;;0.82;;
11082;SDS011;5595;50.186;8.468;2022-08-21T14:55:59;3.42;;;0.88;;
11082;SDS011;5595;50.186;8.468;2022-08-21T14:58:35;1.73;;;1.00;;
11082;SDS011;5595;50.186;8.468;2022-08-21T15:01:04;1.45;;;0.77;;
11082;SDS011;5595;50.186;8.468;2022-08-21T15:03:33;2.53;;;0.90;;
11082;SDS011;5595;50.186;8.468;2022-08-21T15:06:02;5.47;;;1.10;;
11082;SDS011;5595;50.186;8.468;2022-08-21T15:08:30;1.40;;;1.00;;
11082;SDS011;5595;50.186;8.468;2022-08-21T15:10:58;3.78;;;0.90;;
11082;SDS011;5595;50.186;8.468;2022-08-21T15:13:27;2.88;;;0.95;;
11082;SDS011;5595;50.186;8.468;2022-08-21T15:15:56;2.63;;;0.95;;